createdAt,value
2023-03-22T00:02:26.162Z,100747.81
2023-03-22T00:04:56.458Z,100749.63
2023-03-22T00:07:25.125Z,100748.75
2023-03-22T00:09:53.526Z,100737.28
2023-03-22T00:12:21.942Z,100741.78
2023-03-22T00:14:50.510Z,100730.31
2023-03-22T00:17:18.898Z,100739.09
2023-03-22T00:19:47.420Z,100731.13
2023-03-22T00:22:17.209Z,100727.47
2023-03-22T00:24:45.821Z,100719.50
2023-03-22T00:27:14.649Z,100715.91
2023-03-22T00:29:43.419Z,100708.06
2023-03-22T00:32:11.798Z,100706.41
2023-03-22T00:34:40.340Z,100705.47
2023-03-22T00:37:09.081Z,100696.66
2023-03-22T00:39:39.065Z,100688.69
2023-03-22T00:42:08.159Z,100685.97
2023-03-22T00:44:36.449Z,100693.91
2023-03-22T00:47:05.074Z,100689.50
2023-03-22T00:49:35.118Z,100677.25
2023-03-22T00:52:03.473Z,100677.28
2023-03-22T00:54:31.774Z,100657.69
2023-03-22T00:57:01.437Z,100650.75
2023-03-22T00:59:30.327Z,100667.63
2023-03-22T01:01:59.118Z,100657.03
2023-03-22T01:04:27.917Z,100648.97
2023-03-22T01:06:59.263Z,100647.16
2023-03-22T01:09:30.843Z,100646.38
2023-03-22T01:12:02.416Z,100635.69
2023-03-22T01:14:31.731Z,100638.28
2023-03-22T01:17:00.432Z,100627.66
2023-03-22T01:19:28.919Z,100622.34
2023-03-22T01:21:58.096Z,100586.41
2023-03-22T01:24:26.692Z,100602.88
2023-03-22T01:26:55.157Z,100602.00
2023-03-22T01:29:25.092Z,100608.19
2023-03-22T01:31:54.170Z,100590.59
2023-03-22T01:34:22.884Z,100593.97
2023-03-22T01:36:51.845Z,100586.84
2023-03-22T01:39:20.560Z,100585.97
2023-03-22T01:41:51.749Z,100579.75
2023-03-22T01:44:24.644Z,100585.09
2023-03-22T01:46:55.803Z,100583.25
2023-03-22T01:49:29.839Z,100585.00
2023-03-22T01:52:03.932Z,100564.69
2023-03-22T01:55:01.817Z,100568.19
2023-03-22T01:57:44.879Z,100584.16
2023-03-22T02:00:20.627Z,100551.50
2023-03-22T02:03:09.433Z,100557.56
2023-03-22T02:05:44.871Z,100563.72
2023-03-22T02:08:15.196Z,100555.56
2023-03-22T02:11:00.597Z,100550.41
2023-03-22T02:14:00.750Z,100551.13
2023-03-22T02:17:20.699Z,100538.66
2023-03-22T02:21:03.950Z,100533.34
2023-03-22T02:24:11.823Z,100530.75
2023-03-22T02:27:31.200Z,100522.75
2023-03-22T02:30:32.273Z,100539.44
2023-03-22T02:33:35.817Z,100526.06
2023-03-22T02:36:42.856Z,100530.53
2023-03-22T02:39:25.554Z,100532.31
2023-03-22T02:42:10.947Z,100521.78
2023-03-22T02:44:44.273Z,100518.16
2023-03-22T02:47:23.478Z,100527.91
2023-03-22T02:50:00.343Z,100502.41
2023-03-22T02:52:35.985Z,100509.41
2023-03-22T02:55:12.821Z,100507.59
2023-03-22T02:57:48.335Z,100504.09
2023-03-22T03:00:19.485Z,100486.81
2023-03-22T03:02:52.384Z,100502.47
2023-03-22T03:05:22.875Z,100499.06
2023-03-22T03:07:58.441Z,100500.00
2023-03-22T03:10:29.013Z,100491.19
2023-03-22T03:12:57.357Z,100491.09
2023-03-22T03:15:25.962Z,100487.59
2023-03-22T03:18:26.377Z,100491.19
2023-03-22T03:21:04.399Z,100485.91
2023-03-22T03:23:43.206Z,100491.25
2023-03-22T03:26:25.108Z,100480.75
2023-03-22T03:29:00.670Z,100486.00
2023-03-22T03:31:36.408Z,100461.31
2023-03-22T03:34:14.971Z,100479.69
2023-03-22T03:36:52.322Z,100498.25
2023-03-22T03:39:23.521Z,100475.31
2023-03-22T03:41:57.722Z,100483.25
2023-03-22T03:44:28.465Z,100489.53
2023-03-22T03:46:57.480Z,100480.78
2023-03-22T03:49:27.133Z,100481.56
2023-03-22T03:51:57.272Z,100487.72
2023-03-22T03:54:26.000Z,100483.38
2023-03-22T03:56:56.015Z,100486.00
2023-03-22T03:59:24.399Z,100470.03
2023-03-22T04:01:54.274Z,100478.91
2023-03-22T04:04:29.803Z,100467.63
2023-03-22T04:07:06.094Z,100455.28
2023-03-22T04:09:40.406Z,100463.19
2023-03-22T04:12:18.571Z,100455.31
2023-03-22T04:15:06.926Z,100461.47
2023-03-22T04:17:36.005Z,100454.53
2023-03-22T04:20:06.173Z,100455.34
2023-03-22T04:22:38.345Z,100447.47
2023-03-22T04:25:11.758Z,100339.84
2023-03-22T04:27:47.232Z,100449.25
2023-03-22T04:30:18.892Z,100458.06
2023-03-22T04:32:59.099Z,100458.06
2023-03-22T04:35:40.098Z,100448.41
2023-03-22T04:38:09.748Z,100444.91
2023-03-22T04:40:38.867Z,100429.03
2023-03-22T04:43:19.633Z,100421.03
2023-03-22T04:45:58.256Z,100436.94
2023-03-22T04:48:32.545Z,100426.38
2023-03-22T04:51:04.139Z,100433.41
2023-03-22T04:53:39.473Z,100434.16
2023-03-22T04:56:11.790Z,100432.41
2023-03-22T04:58:43.592Z,100423.63
2023-03-22T05:01:14.013Z,100439.53
2023-03-22T05:03:47.369Z,100420.03
2023-03-22T05:06:18.362Z,100414.75
2023-03-22T05:09:05.985Z,100415.66
2023-03-22T05:11:34.578Z,100430.66
2023-03-22T05:14:30.527Z,100422.69
2023-03-22T05:16:58.986Z,100412.22
2023-03-22T05:19:27.833Z,100440.63
2023-03-22T05:21:58.545Z,100407.16
2023-03-22T05:24:39.765Z,100426.38
2023-03-22T05:27:14.198Z,100417.47
2023-03-22T05:29:45.244Z,100404.41
2023-03-22T05:32:25.784Z,100425.63
2023-03-22T05:34:57.028Z,100381.56
2023-03-22T05:37:32.849Z,100408.88
2023-03-22T05:40:01.701Z,100381.59
2023-03-22T05:42:37.551Z,100395.78
2023-03-22T05:45:17.135Z,100396.63
2023-03-22T05:47:49.750Z,100394.97
2023-03-22T05:50:24.030Z,100386.22
2023-03-22T05:52:53.363Z,100403.75
2023-03-22T05:55:44.894Z,100400.13
2023-03-22T05:58:18.949Z,100397.53
2023-03-22T06:00:51.421Z,100404.59
2023-03-22T06:03:22.380Z,100399.28
2023-03-22T06:05:56.946Z,100403.75
2023-03-22T06:08:41.575Z,100390.47
2023-03-22T06:11:10.303Z,100375.72
2023-03-22T06:13:38.961Z,100386.03
2023-03-22T06:16:11.158Z,100390.47
2023-03-22T06:18:39.740Z,100377.19
2023-03-22T06:21:12.062Z,100387.69
2023-03-22T06:23:40.501Z,100383.25
2023-03-22T06:26:11.367Z,100382.44
2023-03-22T06:28:40.769Z,100407.19
2023-03-22T06:31:11.466Z,100387.69
2023-03-22T06:33:59.378Z,100401.84
2023-03-22T06:36:48.029Z,100397.38
2023-03-22T06:39:29.528Z,100377.31
2023-03-22T06:41:57.922Z,100384.22
2023-03-22T06:44:26.470Z,100393.84
2023-03-22T06:47:08.858Z,100395.72
2023-03-22T06:49:53.862Z,100395.69
2023-03-22T06:52:26.815Z,100384.09
2023-03-22T06:54:56.779Z,100383.09
2023-03-22T06:57:25.987Z,100384.09
2023-03-22T06:59:54.520Z,100386.72
2023-03-22T07:02:24.362Z,100382.31
2023-03-22T07:05:14.309Z,100380.44
2023-03-22T07:07:43.546Z,100365.56
2023-03-22T07:10:12.057Z,100380.50
2023-03-22T07:12:40.606Z,100402.59
2023-03-22T07:15:13.597Z,100399.06
2023-03-22T07:18:02.844Z,100400.66
2023-03-22T07:20:36.887Z,100410.25
2023-03-22T07:23:05.878Z,100392.00
2023-03-22T07:25:40.405Z,100400.00
2023-03-22T07:28:23.092Z,100296.88
2023-03-22T07:31:02.161Z,100378.84
2023-03-22T07:33:35.508Z,100387.53
2023-03-22T07:36:03.869Z,100399.94
2023-03-22T07:38:32.238Z,100400.78
2023-03-22T07:41:00.601Z,100406.13
2023-03-22T07:43:54.028Z,100387.59
2023-03-22T07:46:25.094Z,100357.75
2023-03-22T07:49:33.075Z,100379.72
2023-03-22T07:52:09.116Z,100285.50
2023-03-22T07:54:37.424Z,100393.09
2023-03-22T07:57:08.612Z,100410.78
2023-03-22T07:59:43.504Z,100403.00
2023-03-22T08:02:12.404Z,100364.25
2023-03-22T08:04:53.174Z,100396.75
2023-03-22T08:07:43.191Z,100419.81
2023-03-22T08:10:13.071Z,100386.34
2023-03-22T08:12:41.829Z,100395.34
2023-03-22T08:15:22.865Z,100400.59
2023-03-22T08:17:51.927Z,100386.53
2023-03-22T08:20:32.772Z,100398.00
2023-03-22T08:23:07.916Z,100391.91
2023-03-22T08:25:59.352Z,100374.31
2023-03-22T08:28:27.845Z,100407.75
2023-03-22T08:30:56.177Z,100398.09
2023-03-22T08:33:25.370Z,100385.72
2023-03-22T08:36:08.499Z,100385.69
2023-03-22T08:38:45.210Z,100370.66
2023-03-22T08:41:16.106Z,100365.47
2023-03-22T08:43:44.713Z,100360.06
2023-03-22T08:46:13.206Z,100398.09
2023-03-22T08:48:42.284Z,100368.84
2023-03-22T08:51:27.672Z,100380.53
2023-03-22T08:54:19.127Z,100370.84
2023-03-22T08:57:09.447Z,100381.25
2023-03-22T09:00:00.558Z,100405.91
2023-03-22T09:02:45.339Z,100387.47
2023-03-22T09:05:14.730Z,100381.22
2023-03-22T09:07:45.600Z,100359.13
2023-03-22T09:10:25.152Z,100414.69
2023-03-22T09:12:53.725Z,100389.13
2023-03-22T09:15:22.013Z,100372.41
2023-03-22T09:18:04.967Z,100400.53
2023-03-22T09:20:34.623Z,100377.63
2023-03-22T09:23:05.313Z,100385.50
2023-03-22T09:25:33.743Z,100380.19
2023-03-22T09:28:02.466Z,100378.38
2023-03-22T09:30:31.046Z,100387.28
2023-03-22T09:32:59.452Z,100391.63
2023-03-22T09:35:27.719Z,100385.38
2023-03-22T09:38:06.556Z,100366.94
2023-03-22T09:40:36.630Z,100370.53
2023-03-22T09:43:09.103Z,100366.25
2023-03-22T09:45:43.769Z,100362.47
2023-03-22T09:48:18.280Z,100382.09
2023-03-22T09:50:49.989Z,100363.59
2023-03-22T09:53:21.237Z,100385.47
2023-03-22T09:55:56.876Z,100396.91
2023-03-22T09:58:32.912Z,100384.63
2023-03-22T10:01:05.844Z,100392.44
2023-03-22T10:04:14.315Z,100413.59
2023-03-22T10:06:50.723Z,100408.34
2023-03-22T10:09:30.557Z,100389.81
2023-03-22T10:12:05.164Z,100405.75
2023-03-22T10:14:41.341Z,100380.94
2023-03-22T10:17:14.665Z,100379.22
2023-03-22T10:19:53.433Z,100377.44
2023-03-22T10:22:27.912Z,100364.84
2023-03-22T10:24:58.626Z,100399.28
2023-03-22T10:27:27.839Z,100372.03
2023-03-22T10:30:02.164Z,100365.81
2023-03-22T10:32:54.720Z,100356.81
2023-03-22T10:35:27.291Z,100355.91
2023-03-22T10:37:56.979Z,100379.75
2023-03-22T10:40:31.575Z,100368.25
2023-03-22T10:43:04.714Z,100378.66
2023-03-22T10:45:36.191Z,100354.78
2023-03-22T10:48:10.741Z,100368.81
2023-03-22T10:50:43.448Z,100315.16
2023-03-22T10:53:19.396Z,100330.94
2023-03-22T10:55:49.200Z,100353.88
2023-03-22T10:58:19.871Z,100342.06
2023-03-22T11:00:49.527Z,100349.16
2023-03-22T11:03:31.825Z,100365.69
2023-03-22T11:06:08.754Z,100356.13
2023-03-22T11:08:45.633Z,100373.59
2023-03-22T11:11:23.394Z,100368.91
2023-03-22T11:14:04.308Z,100403.50
2023-03-22T11:16:34.048Z,100399.09
2023-03-22T11:19:04.028Z,100372.97
2023-03-22T11:21:34.455Z,100416.00
2023-03-22T11:24:06.920Z,100388.78
2023-03-22T11:26:41.373Z,100409.72
2023-03-22T11:29:17.988Z,100400.84
2023-03-22T11:31:57.186Z,100406.03
2023-03-22T11:34:29.446Z,100400.66
2023-03-22T11:37:01.292Z,100393.56
2023-03-22T11:39:31.048Z,100395.38
2023-03-22T11:42:03.969Z,100397.06
2023-03-22T11:44:35.931Z,100396.09
2023-03-22T11:47:08.957Z,100412.13
2023-03-22T11:49:46.453Z,100392.56
2023-03-22T11:52:20.012Z,100400.44
2023-03-22T11:54:49.020Z,100405.81
2023-03-22T11:57:23.004Z,100386.25
2023-03-22T11:59:59.547Z,100383.53
2023-03-22T12:02:31.690Z,100391.53
2023-03-22T12:05:09.381Z,100375.03
2023-03-22T12:07:39.636Z,100396.78
2023-03-22T12:10:17.330Z,100376.31
2023-03-22T12:12:52.346Z,100395.78
2023-03-22T12:15:24.178Z,100379.78
2023-03-22T12:17:58.266Z,100390.19
2023-03-22T12:20:38.052Z,100376.97
2023-03-22T12:23:16.299Z,100369.81
2023-03-22T12:25:51.690Z,100395.47
2023-03-22T12:28:26.514Z,100375.19
2023-03-22T12:30:58.607Z,100371.53
2023-03-22T12:33:30.992Z,100381.47
2023-03-22T12:36:03.625Z,100355.69
2023-03-22T12:38:39.246Z,100348.69
2023-03-22T12:41:12.782Z,100362.56
2023-03-22T12:43:50.024Z,100344.09
2023-03-22T12:46:22.649Z,100385.34
2023-03-22T12:48:54.394Z,100373.72
2023-03-22T12:51:22.878Z,100372.59
2023-03-22T12:53:54.898Z,100376.09
2023-03-22T12:56:27.751Z,100370.97
2023-03-22T12:59:01.192Z,100372.50
2023-03-22T13:01:40.654Z,100389.41
2023-03-22T13:04:32.669Z,100367.41
2023-03-22T13:07:16.261Z,100403.66
2023-03-22T13:09:46.602Z,100338.63
2023-03-22T13:12:33.607Z,100382.44
2023-03-22T13:15:41.301Z,100376.28
2023-03-22T13:18:33.456Z,100381.34
2023-03-22T13:21:14.436Z,100369.84
2023-03-22T13:24:00.602Z,100364.28
2023-03-22T13:26:45.710Z,100370.38
2023-03-22T13:29:19.687Z,100372.09
2023-03-22T13:31:58.680Z,100366.03
2023-03-22T13:34:39.937Z,100364.88
2023-03-22T13:37:25.308Z,100323.06
2023-03-22T13:39:53.829Z,100369.41
2023-03-22T13:42:24.973Z,100379.13
2023-03-22T13:45:02.405Z,100374.75
2023-03-22T13:47:35.935Z,100365.09
2023-03-22T13:50:13.279Z,100344.06
2023-03-22T13:52:44.884Z,100360.88
2023-03-22T13:55:42.335Z,100331.75
2023-03-22T13:58:12.929Z,100360.06
2023-03-22T14:00:49.550Z,100342.94
2023-03-22T14:03:28.557Z,100325.31
2023-03-22T14:06:15.058Z,100327.09
2023-03-22T14:08:45.514Z,100325.28
2023-03-22T14:11:28.098Z,100318.22
2023-03-22T14:14:02.070Z,100335.25
2023-03-22T14:16:39.578Z,100313.06
2023-03-22T14:19:17.951Z,100300.34
